Time;durP1;ratioP1;P1;durP2;ratioP2;P2;SDS_P1;SDS_P2;PMS_P1;PMS_P2;Temp;Humidity;BMP_temperature;BMP_pressure;BME280_temperature;BME280_humidity;BME280_pressure;Samples;Min_cycle;Max_cycle;Signal;HPM_P1;HPM_P2
2023/03/05 00:00:55;;;;;;;3.40;2.37;;;;;2.20;96185.00;;;;5055627;28;20609;-68
2023/03/05 00:03:23;;;;;;;2.73;1.83;;;;;2.30;96188.00;;;;5055835;28;20219;-68
2023/03/05 00:05:55;;;;;;;2.53;2.43;;;;;2.30;96189.00;;;;5055906;28;20195;-68
2023/03/05 00:08:23;;;;;;;2.47;2.27;;;;;2.30;96183.00;;;;5055794;28;20191;-68
2023/03/05 00:10:56;;;;;;;3.53;3.23;;;;;2.40;96191.00;;;;5055219;28;20196;-68
2023/03/05 00:13:25;;;;;;;2.67;2.57;;;;;2.30;96174.00;;;;5055508;28;20234;-68
2023/03/05 00:15:53;;;;;;;2.37;2.20;;;;;2.30;96186.00;;;;5055860;28;20215;-68
2023/03/05 00:18:21;;;;;;;2.03;1.93;;;;;2.30;96176.00;;;;5055383;28;20219;-68
2023/03/05 00:20:49;;;;;;;2.47;1.90;;;;;2.30;96182.00;;;;5055176;28;20188;-68
2023/03/05 00:23:16;;;;;;;3.37;3.17;;;;;2.10;96183.00;;;;5055183;28;20188;-68
2023/03/05 00:25:45;;;;;;;2.63;2.53;;;;;2.10;96177.00;;;;5055793;28;20207;-68
2023/03/05 00:28:13;;;;;;;3.33;3.07;;;;;2.10;96173.00;;;;5055760;28;20223;-68
2023/03/05 00:30:42;;;;;;;6.90;2.70;;;;;2.00;96172.00;;;;5037249;28;20703;-69
2023/03/05 00:33:12;;;;;;;4.10;2.97;;;;;2.00;96175.00;;;;5055351;28;20552;-67
2023/03/05 00:35:40;;;;;;;3.73;2.70;;;;;1.90;96160.00;;;;5055928;28;20215;-69
2023/03/05 00:38:07;;;;;;;2.70;2.50;;;;;2.00;96168.00;;;;5055305;28;20219;-68
2023/03/05 00:40:37;;;;;;;2.57;2.40;;;;;2.00;96167.00;;;;5054947;28;20203;-68
2023/03/05 00:43:05;;;;;;;3.03;2.83;;;;;2.00;96161.00;;;;5054904;28;20299;-69
2023/03/05 00:45:33;;;;;;;12.17;2.73;;;;;2.00;96164.00;;;;5054771;28;20208;-67
2023/03/05 00:48:02;;;;;;;2.80;2.50;;;;;2.00;96164.00;;;;5054859;28;20206;-68
2023/03/05 00:50:29;;;;;;;1.93;1.83;;;;;2.00;96167.00;;;;5055305;28;20194;-67
2023/03/05 00:52:57;;;;;;;3.63;3.13;;;;;2.00;96154.00;;;;5054721;28;20584;-67
2023/03/05 00:55:24;;;;;;;2.43;2.33;;;;;2.10;96158.00;;;;5054945;28;20199;-68
2023/03/05 00:57:52;;;;;;;3.07;2.87;;;;;2.00;96158.00;;;;5055188;28;20199;-68
2023/03/05 01:00:20;;;;;;;3.50;3.23;;;;;2.10;96160.00;;;;5054965;28;20250;-68
2023/03/05 01:02:47;;;;;;;2.40;2.13;;;;;2.10;96157.00;;;;5054424;28;20239;-68
2023/03/05 01:05:16;;;;;;;2.27;2.17;;;;;2.10;96160.00;;;;5054652;28;20576;-67
2023/03/05 01:07:44;;;;;;;3.97;3.07;;;;;2.00;96155.00;;;;5054426;28;20203;-67
2023/03/05 01:10:13;;;;;;;1.97;1.70;;;;;1.90;96141.00;;;;5054353;28;20207;-67
2023/03/05 01:12:40;;;;;;;3.53;3.30;;;;;1.80;96146.00;;;;5054296;28;20266;-67
2023/03/05 01:15:08;;;;;;;4.60;3.63;;;;;1.70;96142.00;;;;5054820;28;20210;-67
2023/03/05 01:17:36;;;;;;;3.17;2.97;;;;;1.60;96136.00;;;;5054303;28;20195;-67
2023/03/05 01:20:04;;;;;;;5.80;3.33;;;;;1.70;96132.00;;;;5054455;28;20269;-69
2023/03/05 01:22:33;;;;;;;3.00;2.80;;;;;1.70;96131.00;;;;5035558;28;20219;-67
2023/03/05 01:25:01;;;;;;;2.70;2.50;;;;;1.80;96131.00;;;;5054075;28;20216;-67
2023/03/05 01:27:28;;;;;;;6.10;3.60;;;;;1.80;96122.00;;;;5054076;28;20206;-67
2023/03/05 01:29:56;;;;;;;2.40;2.00;;;;;1.80;96127.00;;;;5054095;28;20198;-69
2023/03/05 01:32:23;;;;;;;2.53;2.33;;;;;1.80;96120.00;;;;5054287;28;20212;-68
2023/03/05 01:34:51;;;;;;;2.27;2.17;;;;;1.80;96122.00;;;;5053908;28;20199;-67
2023/03/05 01:37:18;;;;;;;1.97;1.87;;;;;1.80;96126.00;;;;5054151;28;20605;-67
2023/03/05 01:39:47;;;;;;;6.30;4.03;;;;;1.90;96122.00;;;;5035945;28;20199;-67
2023/03/05 01:42:14;;;;;;;3.83;3.53;;;;;1.80;96123.00;;;;5053709;28;20226;-67
2023/03/05 01:45:00;;;;;;;2.03;1.77;;;;;2.00;96114.00;;;;5053655;28;20230;-67
2023/03/05 01:47:27;;;;;;;4.43;2.57;;;;;2.00;96112.00;;;;5053992;28;20168;-68
2023/03/05 01:49:55;;;;;;;5.00;2.47;;;;;1.90;96109.00;;;;5053844;28;20595;-69
2023/03/05 01:52:24;;;;;;;3.30;2.47;;;;;1.90;96117.00;;;;5053370;28;20219;-69
2023/03/05 01:54:56;;;;;;;2.10;2.00;;;;;1.90;96100.00;;;;5053507;28;20193;-69
2023/03/05 01:57:27;;;;;;;9.07;2.90;;;;;1.80;96094.00;;;;5035731;28;20192;-67
2023/03/05 01:59:59;;;;;;;3.07;2.77;;;;;1.80;96098.00;;;;5053450;28;20578;-67
2023/03/05 02:02:26;;;;;;;1.47;1.43;;;;;1.70;96098.00;;;;5053535;28;20216;-68
2023/03/05 02:04:59;;;;;;;4.27;3.73;;;;;1.70;96097.00;;;;5053559;28;20227;-67
2023/03/05 02:07:27;;;;;;;6.03;3.13;;;;;1.80;96096.00;;;;5053677;28;20184;-67
2023/03/05 02:09:56;;;;;;;1.93;1.83;;;;;1.80;96081.00;;;;5053498;28;20194;-67
2023/03/05 02:12:24;;;;;;;2.23;2.07;;;;;1.70;96078.00;;;;5035327;28;20234;-69
2023/03/05 02:14:58;;;;;;;14.37;3.60;;;;;1.80;96075.00;;;;5053177;28;20203;-68
2023/03/05 02:17:27;;;;;;;1.93;1.70;;;;;1.90;96079.00;;;;5053289;28;20647;-68
2023/03/05 02:20:02;;;;;;;2.07;1.97;;;;;1.90;96073.00;;;;5035363;28;20199;-69
2023/03/05 02:22:31;;;;;;;2.50;2.37;;;;;1.80;96078.00;;;;5035199;28;20751;-69
2023/03/05 02:24:59;;;;;;;2.23;2.13;;;;;1.90;96070.00;;;;5053283;28;20220;-68
2023/03/05 02:27:33;;;;;;;2.50;2.30;;;;;1.90;96078.00;;;;5053076;28;20265;-69
2023/03/05 02:30:02;;;;;;;2.30;2.17;;;;;1.90;96073.00;;;;5053343;28;20250;-69
2023/03/05 02:32:29;;;;;;;6.10;2.77;;;;;1.90;96071.00;;;;5053394;28;20543;-68
2023/03/05 02:34:56;;;;;;;3.47;2.93;;;;;1.80;96078.00;;;;5053016;28;20209;-67
2023/03/05 02:37:24;;;;;;;2.13;2.00;;;;;1.80;96068.00;;;;5052890;28;20249;-67
2023/03/05 02:39:52;;;;;;;5.17;2.90;;;;;1.80;96064.00;;;;5053186;28;20555;-67
2023/03/05 02:42:20;;;;;;;2.47;2.37;;;;;1.90;96062.00;;;;5053336;28;20212;-68
2023/03/05 02:44:47;;;;;;;2.13;1.57;;;;;1.90;96059.00;;;;5053029;28;20250;-69
2023/03/05 02:47:16;;;;;;;2.70;2.50;;;;;1.80;96053.00;;;;5053545;28;20210;-69
2023/03/05 02:49:43;;;;;;;4.27;2.40;;;;;1.70;96043.00;;;;5053019;28;20207;-69
2023/03/05 02:52:11;;;;;;;1.60;1.53;;;;;1.80;96057.00;;;;5052901;28;20284;-68
2023/03/05 02:54:38;;;;;;;3.17;2.97;;;;;1.70;96046.00;;;;5053056;28;20205;-68
2023/03/05 02:57:07;;;;;;;3.17;2.97;;;;;1.60;96022.00;;;;5052967;28;20239;-69
2023/03/05 02:59:34;;;;;;;2.03;1.93;;;;;1.70;96050.00;;;;5053018;28;20265;-69
2023/03/05 03:02:02;;;;;;;4.03;3.63;;;;;1.70;96047.00;;;;5052627;28;20583;-68
2023/03/05 03:04:29;;;;;;;3.53;2.03;;;;;1.80;96047.00;;;;5052893;28;20617;-69
2023/03/05 03:06:57;;;;;;;3.73;3.43;;;;;1.90;96039.00;;;;5052694;28;20192;-68
2023/03/05 03:09:25;;;;;;;2.07;1.97;;;;;1.90;96036.00;;;;5053113;28;20200;-69
2023/03/05 03:11:52;;;;;;;3.13;2.57;;;;;1.90;96035.00;;;;5034662;28;20289;-67
2023/03/05 03:14:21;;;;;;;2.30;2.20;;;;;1.80;96039.00;;;;5052582;28;20192;-67
2023/03/05 03:16:49;;;;;;;2.43;2.27;;;;;1.80;96036.00;;;;5052579;28;20193;-67
2023/03/05 03:19:16;;;;;;;2.63;2.43;;;;;1.80;96020.00;;;;5035442;28;20286;-67
2023/03/05 03:21:44;;;;;;;4.80;2.33;;;;;1.80;96036.00;;;;5052361;28;20218;-67
2023/03/05 03:24:11;;;;;;;3.03;2.27;;;;;1.80;96021.00;;;;5053160;28;20253;-67
2023/03/05 03:26:38;;;;;;;3.00;2.27;;;;;1.80;96021.00;;;;5053269;28;20200;-67
2023/03/05 03:29:06;;;;;;;3.27;3.07;;;;;1.90;96017.00;;;;5052697;28;20204;-68
2023/03/05 03:31:35;;;;;;;2.93;2.73;;;;;1.90;96019.00;;;;5052879;28;20207;-67
2023/03/05 03:34:02;;;;;;;2.03;1.93;;;;;1.90;96018.00;;;;5052377;28;20203;-68
2023/03/05 03:36:30;;;;;;;2.50;2.40;;;;;1.80;96018.00;;;;5052385;28;20223;-70
2023/03/05 03:38:58;;;;;;;1.60;1.50;;;;;1.80;96010.00;;;;5052404;28;20201;-68
2023/03/05 03:41:25;;;;;;;6.30;3.70;;;;;1.90;96009.00;;;;5034325;28;20722;-67
2023/03/05 03:43:53;;;;;;;2.00;1.90;;;;;2.00;96003.00;;;;5052396;28;20199;-68
2023/03/05 03:46:20;;;;;;;1.90;1.80;;;;;2.00;96010.00;;;;5054513;28;20215;-68
2023/03/05 03:48:52;;;;;;;2.67;2.47;;;;;2.00;96000.00;;;;5056256;28;20226;-68
2023/03/05 03:51:19;;;;;;;2.60;2.50;;;;;2.00;96006.00;;;;5055788;28;20231;-68
2023/03/05 03:53:46;;;;;;;2.20;2.00;;;;;2.00;96000.00;;;;5056448;28;20200;-68
2023/03/05 03:56:14;;;;;;;2.40;2.20;;;;;2.00;96000.00;;;;5047825;22;20304;-58
2023/03/05 03:58:41;;;;;;;2.00;1.90;;;;;2.10;96006.00;;;;5036096;28;20198;-58
2023/03/05 04:01:09;;;;;;;3.60;3.03;;;;;2.10;96006.00;;;;5035873;28;20203;-58
2023/03/05 04:03:36;;;;;;;2.17;2.03;;;;;2.00;96013.00;;;;5036075;28;20564;-58
2023/03/05 04:06:05;;;;;;;3.50;2.87;;;;;2.00;95995.00;;;;5035763;28;20228;-59
2023/03/05 04:08:33;;;;;;;2.03;1.93;;;;;1.90;96000.00;;;;5035990;28;20204;-58
2023/03/05 04:11:01;;;;;;;3.53;3.23;;;;;2.00;95994.00;;;;5035962;28;20234;-61
2023/03/05 04:13:29;;;;;;;5.57;3.33;;;;;2.00;95997.00;;;;5034327;28;20663;-58
2023/03/05 04:15:56;;;;;;;2.80;2.00;;;;;2.00;95987.00;;;;5034301;28;20215;-58
2023/03/05 04:18:24;;;;;;;3.77;2.10;;;;;2.00;95986.00;;;;5035952;28;20656;-58
2023/03/05 04:20:52;;;;;;;5.20;3.00;;;;;2.00;95984.00;;;;5035525;28;20192;-58
2023/03/05 04:23:21;;;;;;;5.90;3.73;;;;;2.00;95985.00;;;;5035871;28;20220;-58
2023/03/05 04:25:48;;;;;;;2.43;1.67;;;;;2.00;95989.00;;;;5036041;28;20228;-59
2023/03/05 04:28:16;;;;;;;3.27;2.73;;;;;2.10;95984.00;;;;5035890;28;20236;-58
2023/03/05 04:30:44;;;;;;;3.50;1.63;;;;;2.10;95973.00;;;;5035530;28;20620;-58
2023/03/05 04:33:11;;;;;;;4.30;2.30;;;;;2.10;95976.00;;;;5035294;28;20199;-58
2023/03/05 04:35:39;;;;;;;2.77;2.57;;;;;2.10;95972.00;;;;5035629;28;20188;-58
2023/03/05 04:38:06;;;;;;;3.13;2.67;;;;;2.10;95984.00;;;;5035338;28;20207;-58
2023/03/05 04:40:36;;;;;;;3.30;3.00;;;;;1.90;95973.00;;;;5035438;28;20197;-58
2023/03/05 04:43:04;;;;;;;2.33;2.23;;;;;1.90;95978.00;;;;5035111;28;20197;-58
2023/03/05 04:45:32;;;;;;;3.10;2.83;;;;;2.00;95963.00;;;;5034855;28;20228;-58
2023/03/05 04:48:00;;;;;;;1.53;1.43;;;;;1.90;95959.00;;;;5033873;28;20284;-58
2023/03/05 04:50:28;;;;;;;4.93;2.80;;;;;2.00;95964.00;;;;5035440;28;20671;-58
2023/03/05 04:52:55;;;;;;;1.67;1.57;;;;;2.00;95964.00;;;;5035411;28;20200;-59
2023/03/05 04:55:22;;;;;;;5.53;2.73;;;;;2.00;95960.00;;;;5033700;28;20197;-58
2023/03/05 04:57:51;;;;;;;3.17;2.87;;;;;2.00;95958.00;;;;5033709;28;20208;-58
2023/03/05 05:00:20;;;;;;;3.07;2.73;;;;;2.00;95974.00;;;;5035117;28;20208;-59
2023/03/05 05:02:49;;;;;;;3.53;2.43;;;;;2.00;95967.00;;;;5034937;28;20687;-58
2023/03/05 05:05:19;;;;;;;3.53;3.23;;;;;2.00;95963.00;;;;5034587;28;20208;-58
2023/03/05 05:07:46;;;;;;;3.60;2.37;;;;;2.00;95959.00;;;;5034528;28;20220;-58
2023/03/05 05:10:15;;;;;;;2.90;2.70;;;;;2.00;95949.00;;;;5034792;28;20192;-59
2023/03/05 05:12:42;;;;;;;5.17;2.03;;;;;2.00;95949.00;;;;5034502;28;20193;-59
2023/03/05 05:15:13;;;;;;;3.10;2.90;;;;;1.90;95944.00;;;;5034726;28;20189;-58
2023/03/05 05:17:40;;;;;;;2.10;2.00;;;;;1.90;95955.00;;;;5034610;28;20220;-58
2023/03/05 05:20:10;;;;;;;2.03;1.93;;;;;1.90;95948.00;;;;5034586;28;20200;-58
2023/03/05 05:22:38;;;;;;;2.23;2.13;;;;;1.90;95960.00;;;;5034444;28;20288;-59
2023/03/05 05:25:06;;;;;;;1.90;1.77;;;;;1.80;95957.00;;;;5034500;28;20224;-58
2023/03/05 05:27:33;;;;;;;3.40;2.53;;;;;1.90;95950.00;;;;5034139;28;20278;-58
2023/03/05 05:30:01;;;;;;;3.13;2.93;;;;;1.90;95955.00;;;;5034185;28;20203;-58
2023/03/05 05:32:30;;;;;;;3.00;2.70;;;;;1.90;95954.00;;;;5034424;28;20631;-58
2023/03/05 05:34:58;;;;;;;4.40;4.00;;;;;1.90;95950.00;;;;5034234;28;20645;-58
2023/03/05 05:37:27;;;;;;;3.33;3.13;;;;;1.90;95956.00;;;;5034621;28;20216;-58
2023/03/05 05:39:54;;;;;;;3.70;3.37;;;;;1.90;95949.00;;;;5033982;28;20254;-58
2023/03/05 05:42:24;;;;;;;3.07;2.87;;;;;1.90;95949.00;;;;5034067;28;20291;-58
2023/03/05 05:44:54;;;;;;;4.07;1.60;;;;;1.90;95950.00;;;;5034394;28;20180;-58
2023/03/05 05:47:21;;;;;;;1.80;1.70;;;;;1.80;95946.00;;;;5032430;28;20220;-58
2023/03/05 05:49:50;;;;;;;3.80;3.50;;;;;1.80;95951.00;;;;5033982;28;20200;-58
2023/03/05 05:52:18;;;;;;;1.83;1.67;;;;;1.90;95950.00;;;;5033800;28;20189;-58
2023/03/05 05:54:45;;;;;;;2.63;2.43;;;;;1.90;95958.00;;;;5033707;28;20219;-58
2023/03/05 05:57:13;;;;;;;3.17;2.93;;;;;1.90;95941.00;;;;5033697;28;20230;-58
2023/03/05 05:59:42;;;;;;;2.97;2.77;;;;;1.90;95946.00;;;;5033673;28;20185;-60
2023/03/05 06:02:10;;;;;;;4.83;2.33;;;;;2.00;95956.00;;;;5032315;28;20197;-58
2023/03/05 06:04:38;;;;;;;3.53;3.00;;;;;2.00;95945.00;;;;5033534;28;20192;-58
2023/03/05 06:07:07;;;;;;;2.80;2.57;;;;;2.00;95949.00;;;;5033383;28;20243;-58
2023/03/05 06:09:36;;;;;;;2.77;2.57;;;;;2.00;95947.00;;;;5033523;28;20195;-59
2023/03/05 06:12:04;;;;;;;2.03;1.93;;;;;2.00;95943.00;;;;5033704;28;20200;-59
2023/03/05 06:14:31;;;;;;;2.17;2.00;;;;;2.00;95943.00;;;;5033454;28;20197;-58
2023/03/05 06:16:59;;;;;;;2.90;1.47;;;;;2.00;95930.00;;;;5033259;28;20208;-58
2023/03/05 06:19:26;;;;;;;2.37;2.23;;;;;1.80;95945.00;;;;5033342;28;20205;-58
2023/03/05 06:21:54;;;;;;;4.00;3.27;;;;;1.90;95948.00;;;;5033280;28;20197;-58
2023/03/05 06:24:23;;;;;;;1.70;1.60;;;;;2.00;95940.00;;;;5033718;28;20196;-59
2023/03/05 06:26:50;;;;;;;2.67;2.47;;;;;2.00;95944.00;;;;5033216;28;20715;-58
2023/03/05 06:29:17;;;;;;;2.37;2.27;;;;;2.00;95941.00;;;;5032138;28;20231;-58
2023/03/05 06:31:45;;;;;;;3.13;2.50;;;;;2.10;95941.00;;;;5033126;28;20258;-59
2023/03/05 06:34:12;;;;;;;1.30;1.30;;;;;2.00;95943.00;;;;5033056;28;20224;-58
2023/03/05 06:36:42;;;;;;;4.37;2.83;;;;;2.00;95937.00;;;;5033377;28;20274;-60
2023/03/05 06:39:09;;;;;;;3.97;2.30;;;;;2.00;95936.00;;;;5031794;28;20742;-59
2023/03/05 06:41:38;;;;;;;1.80;1.70;;;;;2.10;95943.00;;;;5031838;28;20200;-59
2023/03/05 06:44:06;;;;;;;2.03;1.93;;;;;2.00;95939.00;;;;5033049;28;20189;-58
2023/03/05 06:46:37;;;;;;;2.77;2.50;;;;;2.00;95943.00;;;;5033773;28;20224;-59
2023/03/05 06:49:05;;;;;;;2.70;2.23;;;;;2.00;95932.00;;;;5031690;28;20250;-59
2023/03/05 06:51:36;;;;;;;3.83;3.63;;;;;1.90;95928.00;;;;5032910;28;20737;-58
2023/03/05 06:54:06;;;;;;;3.17;2.83;;;;;2.00;95929.00;;;;5033113;28;20204;-58
2023/03/05 06:56:35;;;;;;;2.97;2.73;;;;;2.00;95926.00;;;;5032781;28;20235;-59
2023/03/05 06:59:04;;;;;;;9.93;3.23;;;;;2.10;95917.00;;;;5033102;28;20574;-61
2023/03/05 07:01:33;;;;;;;1.93;1.83;;;;;2.10;95918.00;;;;5032844;28;20193;-59
2023/03/05 07:04:01;;;;;;;2.50;2.40;;;;;2.10;95917.00;;;;5032771;28;20192;-59
2023/03/05 07:06:32;;;;;;;1.60;1.60;;;;;2.20;95927.00;;;;5031320;28;20228;-59
2023/03/05 07:09:00;;;;;;;2.87;1.47;;;;;2.30;95922.00;;;;5033114;28;20608;-59
2023/03/05 07:11:29;;;;;;;1.17;1.17;;;;;2.30;95925.00;;;;5032795;28;20673;-59
2023/03/05 07:13:56;;;;;;;2.10;1.87;;;;;2.30;95920.00;;;;5032975;28;20294;-59
2023/03/05 07:16:26;;;;;;;3.93;2.33;;;;;2.40;95918.00;;;;5032582;28;20253;-59
2023/03/05 07:18:54;;;;;;;4.10;2.27;;;;;2.50;95928.00;;;;5032985;28;20193;-59
2023/03/05 07:21:24;;;;;;;1.80;1.47;;;;;2.50;95918.00;;;;5035598;28;20189;-59
2023/03/05 07:23:54;;;;;;;8.63;2.50;;;;;2.40;95920.00;;;;5037030;28;20184;-59
2023/03/05 07:26:22;;;;;;;2.90;2.63;;;;;2.40;95921.00;;;;5036325;28;20231;-59
2023/03/05 07:28:50;;;;;;;3.23;3.03;;;;;2.40;95920.00;;;;5036669;28;20196;-59
2023/03/05 07:31:20;;;;;;;2.17;2.07;;;;;2.50;95916.00;;;;5036422;28;20201;-59
2023/03/05 07:33:50;;;;;;;2.03;1.93;;;;;2.50;95920.00;;;;5036672;28;20200;-59
2023/03/05 07:36:17;;;;;;;3.77;2.73;;;;;2.50;95914.00;;;;5036549;28;20568;-59
2023/03/05 07:38:45;;;;;;;4.83;2.70;;;;;2.50;95917.00;;;;5035069;28;20281;-59
2023/03/05 07:41:18;;;;;;;2.13;2.03;;;;;2.50;95918.00;;;;5034905;28;20238;-59
2023/03/05 07:43:46;;;;;;;5.30;2.77;;;;;2.50;95913.00;;;;5036228;28;20187;-59
2023/03/05 07:46:16;;;;;;;2.57;2.30;;;;;2.60;95910.00;;;;5036211;28;20248;-59
2023/03/05 07:48:44;;;;;;;4.20;2.47;;;;;2.70;95917.00;;;;5036320;28;20196;-59
2023/03/05 07:51:15;;;;;;;2.50;2.30;;;;;2.80;95910.00;;;;5035939;28;20196;-59
2023/03/05 07:53:43;;;;;;;2.90;2.07;;;;;2.80;95908.00;;;;5036174;28;20193;-59
2023/03/05 07:56:10;;;;;;;2.57;1.97;;;;;2.90;95906.00;;;;5036143;28;20217;-59
2023/03/05 07:58:38;;;;;;;6.87;2.57;;;;;2.80;95910.00;;;;5036224;28;20571;-59
2023/03/05 08:01:13;;;;;;;2.73;2.53;;;;;2.80;95910.00;;;;5035745;28;20667;-59
2023/03/05 08:03:40;;;;;;;2.63;2.30;;;;;2.90;95910.00;;;;5034613;28;20310;-59
2023/03/05 08:06:09;;;;;;;3.33;2.47;;;;;2.90;95911.00;;;;5035866;28;20225;-59
2023/03/05 08:08:38;;;;;;;3.33;2.57;;;;;2.90;95900.00;;;;5034452;28;20203;-59
2023/03/05 08:11:06;;;;;;;4.80;2.73;;;;;3.00;95901.00;;;;5035685;28;20220;-59
2023/03/05 08:13:34;;;;;;;2.27;2.10;;;;;3.10;95900.00;;;;5035684;28;20207;-59
2023/03/05 08:16:06;;;;;;;3.10;2.80;;;;;3.10;95908.00;;;;5035827;28;20572;-59
2023/03/05 08:18:33;;;;;;;3.17;2.97;;;;;3.10;95902.00;;;;5035887;28;20181;-58
2023/03/05 08:21:01;;;;;;;2.00;1.90;;;;;3.20;95903.00;;;;5035713;28;20196;-58
2023/03/05 08:23:29;;;;;;;6.43;3.30;;;;;3.20;95903.00;;;;5035414;28;20251;-59
2023/03/05 08:25:58;;;;;;;3.13;2.07;;;;;3.30;95904.00;;;;5035191;28;20826;-59
2023/03/05 08:28:25;;;;;;;1.40;1.37;;;;;3.40;95903.00;;;;5035618;28;20612;-59
2023/03/05 08:30:53;;;;;;;3.37;2.97;;;;;3.40;95895.00;;;;5035271;28;20200;-59
2023/03/05 08:33:20;;;;;;;3.07;2.47;;;;;3.40;95903.00;;;;5035277;28;20251;-58
2023/03/05 08:35:48;;;;;;;3.37;3.07;;;;;3.50;95892.00;;;;5035355;28;20239;-58
2023/03/05 08:38:15;;;;;;;2.00;1.90;;;;;3.60;95895.00;;;;5034088;28;20205;-58
2023/03/05 08:40:43;;;;;;;11.87;2.73;;;;;3.80;95885.00;;;;5035167;28;20196;-60
2023/03/05 08:43:12;;;;;;;2.80;1.97;;;;;3.90;95888.00;;;;5035461;28;20303;-58
2023/03/05 08:45:40;;;;;;;1.83;1.73;;;;;4.00;95888.00;;;;5035079;28;20196;-58
2023/03/05 08:48:07;;;;;;;5.30;2.70;;;;;4.20;95889.00;;;;5034950;28;20299;-58
2023/03/05 08:50:36;;;;;;;2.43;2.30;;;;;4.30;95883.00;;;;5034864;28;20201;-59
2023/03/05 08:53:04;;;;;;;1.83;1.73;;;;;4.20;95877.00;;;;5035179;28;20197;-60
2023/03/05 08:55:31;;;;;;;2.27;1.67;;;;;4.20;95873.00;;;;5034676;28;20204;-62
2023/03/05 08:57:58;;;;;;;1.90;1.80;;;;;4.20;95880.00;;;;5034832;28;20281;-58
2023/03/05 09:00:27;;;;;;;2.17;1.90;;;;;4.10;95876.00;;;;5034695;28;20204;-59
2023/03/05 09:02:55;;;;;;;2.10;1.97;;;;;4.10;95877.00;;;;5034656;28;20557;-59
2023/03/05 09:05:28;;;;;;;2.33;2.03;;;;;4.20;95867.00;;;;5034792;28;20180;-59
2023/03/05 09:07:56;;;;;;;2.53;1.90;;;;;4.10;95861.00;;;;5034415;28;20216;-59
2023/03/05 09:10:23;;;;;;;2.00;1.90;;;;;4.30;95871.00;;;;5034712;28;20221;-60
2023/03/05 09:12:51;;;;;;;2.20;2.00;;;;;4.50;95867.00;;;;5034476;28;20192;-61
2023/03/05 09:15:18;;;;;;;1.43;1.43;;;;;4.60;95870.00;;;;5034742;28;20208;-60
2023/03/05 09:17:47;;;;;;;2.23;2.00;;;;;4.70;95863.00;;;;5034399;28;20221;-61
2023/03/05 09:20:15;;;;;;;2.47;2.13;;;;;4.80;95864.00;;;;5034402;28;20201;-61
2023/03/05 09:22:43;;;;;;;1.90;1.80;;;;;4.70;95866.00;;;;5034547;28;20200;-62
2023/03/05 09:25:12;;;;;;;2.67;2.47;;;;;5.00;95864.00;;;;5033073;28;20200;-61
2023/03/05 09:27:39;;;;;;;3.73;2.53;;;;;5.20;95866.00;;;;5034429;28;20588;-62
2023/03/05 09:30:08;;;;;;;4.13;2.70;;;;;5.00;95865.00;;;;5034246;28;20197;-59
2023/03/05 09:32:35;;;;;;;5.00;3.47;;;;;5.00;95862.00;;;;5034257;28;20247;-61
2023/03/05 09:35:06;;;;;;;1.57;1.47;;;;;5.10;95857.00;;;;5034323;28;20658;-62
2023/03/05 09:37:34;;;;;;;1.63;1.57;;;;;4.80;95854.00;;;;5034560;28;20576;-61
2023/03/05 09:40:02;;;;;;;11.90;4.20;;;;;4.80;95853.00;;;;5034231;28;20197;-62
2023/03/05 09:42:45;;;;;;;1.57;1.57;;;;;4.90;95845.00;;;;5034108;28;20243;-62
2023/03/05 09:45:22;;;;;;;4.10;2.43;;;;;5.00;95856.00;;;;5034384;28;20240;-61
2023/03/05 09:47:56;;;;;;;2.80;2.20;;;;;4.80;95839.00;;;;5034100;28;20205;-63
2023/03/05 09:50:36;;;;;;;1.67;1.57;;;;;4.90;95842.00;;;;5033864;28;20234;-62
2023/03/05 09:53:14;;;;;;;2.97;2.73;;;;;4.60;95832.00;;;;5034109;28;20189;-62
2023/03/05 09:58:16;;;;;;;3.17;2.00;;;;;4.60;95830.00;;;;5077148;22;20224;-64
2023/03/05 10:00:46;;;;;;;1.53;1.43;;;;;4.80;95830.00;;;;5035900;28;20197;-62
2023/03/05 10:03:19;;;;;;;2.83;2.27;;;;;5.00;95825.00;;;;5053950;28;20576;-63
2023/03/05 10:06:15;;;;;;;1.43;1.43;;;;;5.40;95836.00;;;;5053687;28;20666;-62
2023/03/05 10:08:53;;;;;;;1.40;1.40;;;;;5.40;95820.00;;;;5033621;28;20219;-62
2023/03/05 10:11:33;;;;;;;3.67;3.37;;;;;5.50;95829.00;;;;5053788;28;20635;-62
2023/03/05 10:14:02;;;;;;;2.77;2.57;;;;;5.80;95827.00;;;;5054013;28;20180;-63
2023/03/05 10:16:58;;;;;;;3.27;2.97;;;;;5.60;95822.00;;;;5054429;28;20603;-64
2023/03/05 10:19:44;;;;;;;3.00;1.67;;;;;5.80;95831.00;;;;5029153;28;20205;-63
2023/03/05 10:22:18;;;;;;;3.33;2.23;;;;;5.60;95818.00;;;;5053275;28;20187;-63
2023/03/05 10:25:01;;;;;;;1.50;1.40;;;;;5.10;95824.00;;;;5053492;28;20540;-64
2023/03/05 10:27:40;;;;;;;2.50;1.77;;;;;4.90;95812.00;;;;5053181;28;20223;-61
2023/03/05 10:30:23;;;;;;;1.90;1.80;;;;;5.00;95817.00;;;;5053128;28;20222;-60
2023/03/05 10:32:59;;;;;;;1.73;1.63;;;;;5.00;95822.00;;;;5053365;28;20181;-61
2023/03/05 10:35:44;;;;;;;2.60;2.43;;;;;5.30;95812.00;;;;5053315;28;20234;-62
2023/03/05 10:38:48;;;;;;;1.80;1.70;;;;;5.40;95816.00;;;;5053460;28;20189;-62
2023/03/05 10:41:25;;;;;;;3.00;2.80;;;;;5.40;95807.00;;;;5052740;28;20594;-61
2023/03/05 10:44:00;;;;;;;3.63;2.17;;;;;5.60;95806.00;;;;5053222;28;20616;-62
2023/03/05 10:46:33;;;;;;;2.53;2.33;;;;;5.60;95803.00;;;;5052927;28;20224;-60
2023/03/05 10:49:06;;;;;;;4.37;1.70;;;;;5.70;95807.00;;;;5052811;28;20189;-61
2023/03/05 10:51:38;;;;;;;2.50;2.30;;;;;5.30;95794.00;;;;5053098;28;20187;-61
2023/03/05 10:54:16;;;;;;;2.30;2.10;;;;;5.20;95789.00;;;;5052853;28;20203;-61
2023/03/05 10:56:43;;;;;;;2.53;2.20;;;;;5.30;95785.00;;;;5056015;28;20219;-61
2023/03/05 10:59:11;;;;;;;1.10;1.10;;;;;5.30;95788.00;;;;5057142;28;20594;-61
2023/03/05 11:01:38;;;;;;;4.50;2.37;;;;;5.40;95782.00;;;;5056897;28;20199;-61
2023/03/05 11:04:09;;;;;;;3.57;3.07;;;;;5.30;95784.00;;;;5057320;28;20620;-61
2023/03/05 11:06:39;;;;;;;3.27;2.93;;;;;5.40;95781.00;;;;5056858;28;20252;-61
2023/03/05 11:09:26;;;;;;;6.27;3.77;;;;;5.40;95780.00;;;;5056741;28;20203;-62
2023/03/05 11:12:13;;;;;;;2.80;2.67;;;;;5.30;95783.00;;;;5056642;28;20629;-62
2023/03/05 11:14:43;;;;;;;3.13;2.33;;;;;5.30;95785.00;;;;5056817;28;20632;-61
2023/03/05 11:17:31;;;;;;;4.03;1.50;;;;;5.20;95791.00;;;;5057214;28;20212;-61
2023/03/05 11:20:22;;;;;;;1.97;1.47;;;;;4.90;95770.00;;;;5038910;28;20571;-61
2023/03/05 11:23:05;;;;;;;2.10;2.00;;;;;4.80;95775.00;;;;5056674;28;20184;-61
2023/03/05 11:25:36;;;;;;;3.43;2.23;;;;;4.70;95776.00;;;;5056651;28;20199;-62
2023/03/05 11:28:04;;;;;;;2.47;2.37;;;;;4.60;95775.00;;;;5038578;28;20735;-62
2023/03/05 11:30:34;;;;;;;2.93;2.73;;;;;4.70;95771.00;;;;5056864;28;20203;-62
2023/03/05 11:33:09;;;;;;;7.07;3.40;;;;;4.70;95775.00;;;;5056796;28;20203;-62
2023/03/05 11:35:40;;;;;;;2.27;2.10;;;;;4.50;95776.00;;;;5056504;28;20193;-62
2023/03/05 11:38:17;;;;;;;7.50;3.53;;;;;4.50;95771.00;;;;5056350;28;20207;-62
2023/03/05 11:40:47;;;;;;;3.40;3.13;;;;;4.40;95769.00;;;;5056496;28;20184;-62
2023/03/05 11:43:17;;;;;;;1.87;1.73;;;;;4.40;95767.00;;;;5056576;28;20669;-61
2023/03/05 11:45:47;;;;;;;2.53;2.33;;;;;4.40;95762.00;;;;5056573;28;20184;-61
2023/03/05 11:48:19;;;;;;;2.03;1.93;;;;;4.30;95752.00;;;;5056597;28;20223;-61
2023/03/05 11:50:52;;;;;;;1.90;1.80;;;;;4.30;95757.00;;;;5056280;28;20193;-62
2023/03/05 11:53:22;;;;;;;1.90;1.80;;;;;4.30;95759.00;;;;5056483;28;20180;-62
2023/03/05 11:55:55;;;;;;;2.13;2.03;;;;;4.40;95751.00;;;;5056025;28;20204;-61
2023/03/05 11:58:31;;;;;;;1.77;1.67;;;;;4.30;95752.00;;;;5056326;28;20577;-61
2023/03/05 12:00:59;;;;;;;2.70;2.50;;;;;4.40;95741.00;;;;5056329;28;20592;-61
2023/03/05 12:03:32;;;;;;;1.70;1.60;;;;;4.40;95741.00;;;;5055987;28;20192;-61
2023/03/05 12:06:06;;;;;;;4.13;2.87;;;;;4.40;95740.00;;;;5055619;28;20180;-62
2023/03/05 12:08:38;;;;;;;3.07;2.87;;;;;4.40;95734.00;;;;5056378;28;20231;-61
2023/03/05 12:11:12;;;;;;;2.07;1.97;;;;;4.50;95730.00;;;;5056376;28;20192;-61
2023/03/05 12:13:45;;;;;;;3.17;2.83;;;;;4.50;95725.00;;;;5056051;28;20196;-62
2023/03/05 12:16:20;;;;;;;5.40;3.07;;;;;4.60;95721.00;;;;5056223;28;20295;-61
2023/03/05 12:18:52;;;;;;;1.83;1.67;;;;;4.70;95720.00;;;;5055678;28;20172;-62
2023/03/05 12:21:31;;;;;;;1.77;1.67;;;;;4.80;95706.00;;;;5055963;28;20188;-62
2023/03/05 12:24:01;;;;;;;3.03;2.83;;;;;4.70;95706.00;;;;5055496;28;20188;-62
2023/03/05 12:26:58;;;;;;;1.67;1.57;;;;;4.80;95704.00;;;;5037604;28;20654;-62
2023/03/05 12:29:37;;;;;;;1.73;1.63;;;;;4.70;95700.00;;;;5055904;28;20273;-62
2023/03/05 12:32:06;;;;;;;7.87;2.90;;;;;4.70;95691.00;;;;5055485;28;20184;-62
2023/03/05 12:34:48;;;;;;;3.00;2.83;;;;;4.70;95684.00;;;;5055583;28;20200;-61
2023/03/05 12:37:54;;;;;;;2.63;2.53;;;;;4.60;95683.00;;;;5055292;28;20690;-61
2023/03/05 12:40:25;;;;;;;7.20;3.73;;;;;4.60;95688.00;;;;5055124;28;20265;-62
2023/03/05 12:42:57;;;;;;;3.53;2.87;;;;;4.60;95686.00;;;;5055770;28;20181;-62